Heath, Montana
Current Conditions -  °F | °C
As of 10:54 AM on Sunday 23 Nov 2014 (Local Time) from KLWT Reporting Station
Scattered Clouds Scattered Clouds  
Wind Chill: 24°   Ceiling: Unl
Heat Index: 36°   Visibility: 10mi
Dew Point: 20°   Wind: 23mph
Humidity: 52%   Direction: 290°WNW
Pressure: 29.87"   Gusts: 36mph
Location:  46.9245°N, 109.389°W
Report Text: KLWT 231754Z AUTO 29020G31KT 10SM SCT080 02/M07 A2987 RMK AO2 PK WND 29031/1753 SLP133 60000 T00221067 10033 21017 51006
Loading
Personal Weather Stations






























Interactive Weather Map New forecast layout! Learn more

10-Day Weather Forecast

Advertisements
Track Severe Weather on mobile